sensor_id;sensor_type;location;lat;lon;timestamp;temperature;humidity
71304;DHT22;59091;47.446;19.148;2024-02-26T00:01:23;11.49;83.22
71304;DHT22;59091;47.446;19.148;2024-02-26T00:03:48;11.50;83.27
71304;DHT22;59091;47.446;19.148;2024-02-26T00:06:14;11.49;83.27
71304;DHT22;59091;47.446;19.148;2024-02-26T00:08:39;11.50;83.22
71304;DHT22;59091;47.446;19.148;2024-02-26T00:11:05;11.47;83.10
71304;DHT22;59091;47.446;19.148;2024-02-26T00:13:30;11.49;83.04
71304;DHT22;59091;47.446;19.148;2024-02-26T00:15:55;11.52;83.00
71304;DHT22;59091;47.446;19.148;2024-02-26T00:18:21;11.55;82.89
71304;DHT22;59091;47.446;19.148;2024-02-26T00:20:46;11.53;82.78
71304;DHT22;59091;47.446;19.148;2024-02-26T00:23:15;11.56;82.73
71304;DHT22;59091;47.446;19.148;2024-02-26T00:25:40;11.57;82.69
71304;DHT22;59091;47.446;19.148;2024-02-26T00:28:08;11.57;82.68
71304;DHT22;59091;47.446;19.148;2024-02-26T00:30:33;11.57;82.64
71304;DHT22;59091;47.446;19.148;2024-02-26T00:32:59;11.56;82.68
71304;DHT22;59091;47.446;19.148;2024-02-26T00:35:24;11.57;82.58
71304;DHT22;59091;47.446;19.148;2024-02-26T00:37:49;11.55;82.68
71304;DHT22;59091;47.446;19.148;2024-02-26T00:40:15;11.56;82.65
71304;DHT22;59091;47.446;19.148;2024-02-26T00:42:40;11.56;82.59
71304;DHT22;59091;47.446;19.148;2024-02-26T00:45:13;11.55;82.61
71304;DHT22;59091;47.446;19.148;2024-02-26T00:47:40;11.53;82.68
71304;DHT22;59091;47.446;19.148;2024-02-26T00:50:10;11.46;82.85
71304;DHT22;59091;47.446;19.148;2024-02-26T00:52:35;11.47;82.91
71304;DHT22;59091;47.446;19.148;2024-02-26T00:55:02;11.49;82.89
71304;DHT22;59091;47.446;19.148;2024-02-26T00:57:27;11.47;82.87
71304;DHT22;59091;47.446;19.148;2024-02-26T00:59:53;11.49;82.88
71304;DHT22;59091;47.446;19.148;2024-02-26T01:02:21;11.50;82.87
71304;DHT22;59091;47.446;19.148;2024-02-26T01:04:47;11.52;82.86
71304;DHT22;59091;47.446;19.148;2024-02-26T01:07:12;11.52;82.85
71304;DHT22;59091;47.446;19.148;2024-02-26T01:09:38;11.52;82.81
71304;DHT22;59091;47.446;19.148;2024-02-26T01:12:03;11.47;82.80
71304;DHT22;59091;47.446;19.148;2024-02-26T01:14:29;11.52;82.72
71304;DHT22;59091;47.446;19.148;2024-02-26T01:16:54;11.52;82.65
71304;DHT22;59091;47.446;19.148;2024-02-26T01:19:20;11.52;82.62
71304;DHT22;59091;47.446;19.148;2024-02-26T01:21:46;11.53;82.57
71304;DHT22;59091;47.446;19.148;2024-02-26T01:24:11;11.49;82.61
71304;DHT22;59091;47.446;19.148;2024-02-26T01:26:36;11.44;82.92
71304;DHT22;59091;47.446;19.148;2024-02-26T01:29:02;11.44;82.93
71304;DHT22;59091;47.446;19.148;2024-02-26T01:31:27;11.44;83.02
71304;DHT22;59091;47.446;19.148;2024-02-26T01:33:53;11.43;82.96
71304;DHT22;59091;47.446;19.148;2024-02-26T01:36:18;11.44;82.90
71304;DHT22;59091;47.446;19.148;2024-02-26T01:38:43;11.47;82.82
71304;DHT22;59091;47.446;19.148;2024-02-26T01:41:09;11.49;82.77
71304;DHT22;59091;47.446;19.148;2024-02-26T01:43:34;11.46;82.75
71304;DHT22;59091;47.446;19.148;2024-02-26T01:46:00;11.44;82.71
71304;DHT22;59091;47.446;19.148;2024-02-26T01:48:25;11.46;82.87
71304;DHT22;59091;47.446;19.148;2024-02-26T01:50:51;11.49;82.81
71304;DHT22;59091;47.446;19.148;2024-02-26T01:53:18;11.47;82.81
71304;DHT22;59091;47.446;19.148;2024-02-26T01:55:44;11.47;82.76
71304;DHT22;59091;47.446;19.148;2024-02-26T01:58:10;11.46;82.80
71304;DHT22;59091;47.446;19.148;2024-02-26T02:00:36;11.43;82.82
71304;DHT22;59091;47.446;19.148;2024-02-26T02:03:03;11.43;82.84
71304;DHT22;59091;47.446;19.148;2024-02-26T02:05:30;11.44;82.70
71304;DHT22;59091;47.446;19.148;2024-02-26T02:07:56;11.46;82.71
71304;DHT22;59091;47.446;19.148;2024-02-26T02:10:21;11.47;82.68
71304;DHT22;59091;47.446;19.148;2024-02-26T02:12:51;11.44;82.67
71304;DHT22;59091;47.446;19.148;2024-02-26T02:15:17;11.47;82.59
71304;DHT22;59091;47.446;19.148;2024-02-26T02:17:42;11.44;82.58
71304;DHT22;59091;47.446;19.148;2024-02-26T02:20:09;11.39;82.87
71304;DHT22;59091;47.446;19.148;2024-02-26T02:22:40;11.39;82.96
71304;DHT22;59091;47.446;19.148;2024-02-26T02:25:05;11.44;82.74
71304;DHT22;59091;47.446;19.148;2024-02-26T02:27:31;11.43;82.73
71304;DHT22;59091;47.446;19.148;2024-02-26T02:29:56;11.47;82.59
71304;DHT22;59091;47.446;19.148;2024-02-26T02:32:22;11.36;82.81
71304;DHT22;59091;47.446;19.148;2024-02-26T02:34:49;11.37;82.94
71304;DHT22;59091;47.446;19.148;2024-02-26T02:37:14;11.43;82.69
71304;DHT22;59091;47.446;19.148;2024-02-26T02:39:40;11.35;82.94
71304;DHT22;59091;47.446;19.148;2024-02-26T02:42:08;11.36;82.99
71304;DHT22;59091;47.446;19.148;2024-02-26T02:44:33;11.33;83.08
71304;DHT22;59091;47.446;19.148;2024-02-26T02:46:59;11.33;83.01
71304;DHT22;59091;47.446;19.148;2024-02-26T02:49:24;11.36;82.82
71304;DHT22;59091;47.446;19.148;2024-02-26T02:51:50;11.33;82.77
71304;DHT22;59091;47.446;19.148;2024-02-26T02:54:15;11.33;82.69
71304;DHT22;59091;47.446;19.148;2024-02-26T02:56:40;11.36;82.56
71304;DHT22;59091;47.446;19.148;2024-02-26T02:59:06;11.33;82.55
71304;DHT22;59091;47.446;19.148;2024-02-26T03:01:31;11.35;82.49
71304;DHT22;59091;47.446;19.148;2024-02-26T03:03:56;11.35;82.45
71304;DHT22;59091;47.446;19.148;2024-02-26T03:06:22;11.36;82.38
71304;DHT22;59091;47.446;19.148;2024-02-26T03:08:48;11.30;82.38
71304;DHT22;59091;47.446;19.148;2024-02-26T03:11:14;11.33;82.35
71304;DHT22;59091;47.446;19.148;2024-02-26T03:13:40;11.33;82.34
71304;DHT22;59091;47.446;19.148;2024-02-26T03:16:06;11.33;82.18
71304;DHT22;59091;47.446;19.148;2024-02-26T03:18:32;11.33;82.19
71304;DHT22;59091;47.446;19.148;2024-02-26T03:20:57;11.30;82.18
71304;DHT22;59091;47.446;19.148;2024-02-26T03:23:22;11.29;82.14
71304;DHT22;59091;47.446;19.148;2024-02-26T03:25:48;11.29;82.18
71304;DHT22;59091;47.446;19.148;2024-02-26T03:28:13;11.29;82.15
71304;DHT22;59091;47.446;19.148;2024-02-26T03:30:39;11.32;82.20
71304;DHT22;59091;47.446;19.148;2024-02-26T03:33:04;11.28;82.15
71304;DHT22;59091;47.446;19.148;2024-02-26T03:35:30;11.25;82.15
71304;DHT22;59091;47.446;19.148;2024-02-26T03:37:55;11.26;82.09
71304;DHT22;59091;47.446;19.148;2024-02-26T03:40:21;11.20;82.09
71304;DHT22;59091;47.446;19.148;2024-02-26T03:42:46;11.19;82.06
71304;DHT22;59091;47.446;19.148;2024-02-26T03:45:11;11.16;81.95
71304;DHT22;59091;47.446;19.148;2024-02-26T03:47:40;11.15;81.89
71304;DHT22;59091;47.446;19.148;2024-02-26T03:50:06;11.12;81.92
71304;DHT22;59091;47.446;19.148;2024-02-26T03:52:33;11.12;81.84
71304;DHT22;59091;47.446;19.148;2024-02-26T03:54:59;11.12;81.86
71304;DHT22;59091;47.446;19.148;2024-02-26T03:57:24;11.09;81.69
71304;DHT22;59091;47.446;19.148;2024-02-26T03:59:50;11.06;81.61
71304;DHT22;59091;47.446;19.148;2024-02-26T04:02:16;11.02;81.61
71304;DHT22;59091;47.446;19.148;2024-02-26T04:04:41;10.98;81.57
71304;DHT22;59091;47.446;19.148;2024-02-26T04:07:07;10.98;81.64
71304;DHT22;59091;47.446;19.148;2024-02-26T04:09:32;10.96;81.60
71304;DHT22;59091;47.446;19.148;2024-02-26T04:11:58;10.92;81.60
71304;DHT22;59091;47.446;19.148;2024-02-26T04:14:23;10.94;81.66
71304;DHT22;59091;47.446;19.148;2024-02-26T04:16:49;10.92;81.78
71304;DHT22;59091;47.446;19.148;2024-02-26T04:19:17;10.92;81.84
71304;DHT22;59091;47.446;19.148;2024-02-26T04:21:43;10.88;82.02
71304;DHT22;59091;47.446;19.148;2024-02-26T04:24:09;10.89;82.06
71304;DHT22;59091;47.446;19.148;2024-02-26T04:26:34;10.81;82.65
71304;DHT22;59091;47.446;19.148;2024-02-26T04:29:00;10.82;82.73
71304;DHT22;59091;47.446;19.148;2024-02-26T04:31:25;10.81;82.82
71304;DHT22;59091;47.446;19.148;2024-02-26T04:33:54;10.82;82.82
71304;DHT22;59091;47.446;19.148;2024-02-26T04:36:19;10.84;82.85
71304;DHT22;59091;47.446;19.148;2024-02-26T04:38:45;10.85;82.83
71304;DHT22;59091;47.446;19.148;2024-02-26T04:41:10;10.89;82.78
71304;DHT22;59091;47.446;19.148;2024-02-26T04:43:36;10.88;82.68
71304;DHT22;59091;47.446;19.148;2024-02-26T04:46:10;10.88;82.54
71304;DHT22;59091;47.446;19.148;2024-02-26T04:48:36;10.88;82.66
71304;DHT22;59091;47.446;19.148;2024-02-26T04:51:02;10.87;82.69
71304;DHT22;59091;47.446;19.148;2024-02-26T04:53:27;10.84;82.75
71304;DHT22;59091;47.446;19.148;2024-02-26T04:55:52;10.81;82.94
71304;DHT22;59091;47.446;19.148;2024-02-26T04:58:18;10.81;82.91
71304;DHT22;59091;47.446;19.148;2024-02-26T05:00:43;10.85;82.85
71304;DHT22;59091;47.446;19.148;2024-02-26T05:03:09;10.81;83.09
71304;DHT22;59091;47.446;19.148;2024-02-26T05:05:39;10.85;82.86
71304;DHT22;59091;47.446;19.148;2024-02-26T05:08:05;10.82;82.91
71304;DHT22;59091;47.446;19.148;2024-02-26T05:10:30;10.82;83.01
71304;DHT22;59091;47.446;19.148;2024-02-26T05:12:55;10.77;83.14
71304;DHT22;59091;47.446;19.148;2024-02-26T05:15:21;10.75;83.27
71304;DHT22;59091;47.446;19.148;2024-02-26T05:17:46;10.79;83.16
71304;DHT22;59091;47.446;19.148;2024-02-26T05:20:12;10.81;83.10
71304;DHT22;59091;47.446;19.148;2024-02-26T05:22:37;10.82;83.00
71304;DHT22;59091;47.446;19.148;2024-02-26T05:25:03;10.81;83.18
71304;DHT22;59091;47.446;19.148;2024-02-26T05:27:29;10.87;83.40
71304;DHT22;59091;47.446;19.148;2024-02-26T05:29:54;10.98;84.79
71304;DHT22;59091;47.446;19.148;2024-02-26T05:32:20;11.23;85.31
71304;DHT22;59091;47.446;19.148;2024-02-26T05:34:45;11.19;84.45
71304;DHT22;59091;47.446;19.148;2024-02-26T05:37:10;11.15;83.79
71304;DHT22;59091;47.446;19.148;2024-02-26T05:39:36;11.14;83.23
71304;DHT22;59091;47.446;19.148;2024-02-26T05:42:02;11.12;82.79
71304;DHT22;59091;47.446;19.148;2024-02-26T05:44:28;11.11;82.49
71304;DHT22;59091;47.446;19.148;2024-02-26T05:46:53;11.11;82.42
71304;DHT22;59091;47.446;19.148;2024-02-26T05:49:19;11.09;82.31
71304;DHT22;59091;47.446;19.148;2024-02-26T05:51:44;11.06;82.27
71304;DHT22;59091;47.446;19.148;2024-02-26T05:54:10;11.09;82.26
71304;DHT22;59091;47.446;19.148;2024-02-26T05:56:35;11.09;82.29
71304;DHT22;59091;47.446;19.148;2024-02-26T05:59:01;11.19;85.71
71304;DHT22;59091;47.446;19.148;2024-02-26T06:01:26;11.42;85.32
71304;DHT22;59091;47.446;19.148;2024-02-26T06:03:52;11.52;84.53
71304;DHT22;59091;47.446;19.148;2024-02-26T06:06:17;11.37;83.64
71304;DHT22;59091;47.446;19.148;2024-02-26T06:08:43;11.43;85.73
71304;DHT22;59091;47.446;19.148;2024-02-26T06:11:09;11.81;85.67
71304;DHT22;59091;47.446;19.148;2024-02-26T06:13:35;11.81;84.03
71304;DHT22;59091;47.446;19.148;2024-02-26T06:16:00;11.73;82.94
71304;DHT22;59091;47.446;19.148;2024-02-26T06:18:26;11.67;82.31
71304;DHT22;59091;47.446;19.148;2024-02-26T06:20:51;11.65;82.04
71304;DHT22;59091;47.446;19.148;2024-02-26T06:23:16;11.78;84.44
71304;DHT22;59091;47.446;19.148;2024-02-26T06:25:42;11.71;83.92
71304;DHT22;59091;47.446;19.148;2024-02-26T06:28:08;11.76;83.58
71304;DHT22;59091;47.446;19.148;2024-02-26T06:30:34;11.74;83.16
71304;DHT22;59091;47.446;19.148;2024-02-26T06:32:59;12.17;85.43
71304;DHT22;59091;47.446;19.148;2024-02-26T06:35:25;12.14;83.24
71304;DHT22;59091;47.446;19.148;2024-02-26T06:37:50;11.94;81.76
71304;DHT22;59091;47.446;19.148;2024-02-26T06:40:18;12.08;84.17
71304;DHT22;59091;47.446;19.148;2024-02-26T06:42:44;12.18;82.38
71304;DHT22;59091;47.446;19.148;2024-02-26T06:45:09;12.10;81.60
71304;DHT22;59091;47.446;19.148;2024-02-26T06:47:35;12.04;81.18
71304;DHT22;59091;47.446;19.148;2024-02-26T06:50:01;11.90;81.83
71304;DHT22;59091;47.446;19.148;2024-02-26T06:52:26;11.88;81.57
71304;DHT22;59091;47.446;19.148;2024-02-26T06:54:52;11.95;81.65
71304;DHT22;59091;47.446;19.148;2024-02-26T06:57:19;12.01;81.33
71304;DHT22;59091;47.446;19.148;2024-02-26T06:59:45;12.01;81.34
71304;DHT22;59091;47.446;19.148;2024-02-26T07:02:13;12.17;82.89
71304;DHT22;59091;47.446;19.148;2024-02-26T07:04:38;12.25;82.98
71304;DHT22;59091;47.446;19.148;2024-02-26T07:07:04;12.24;81.64
71304;DHT22;59091;47.446;19.148;2024-02-26T07:09:29;12.07;81.96
71304;DHT22;59091;47.446;19.148;2024-02-26T07:11:55;11.91;82.18
71304;DHT22;59091;47.446;19.148;2024-02-26T07:14:20;12.04;81.79
71304;DHT22;59091;47.446;19.148;2024-02-26T07:16:45;12.13;82.00
71304;DHT22;59091;47.446;19.148;2024-02-26T07:19:11;12.16;81.95
71304;DHT22;59091;47.446;19.148;2024-02-26T07:21:37;12.35;81.53
71304;DHT22;59091;47.446;19.148;2024-02-26T07:24:02;12.21;81.76
71304;DHT22;59091;47.446;19.148;2024-02-26T07:26:28;12.22;81.55
71304;DHT22;59091;47.446;19.148;2024-02-26T07:28:56;12.29;81.06
71304;DHT22;59091;47.446;19.148;2024-02-26T07:31:21;12.29;80.94
71304;DHT22;59091;47.446;19.148;2024-02-26T07:33:46;12.35;80.96
71304;DHT22;59091;47.446;19.148;2024-02-26T07:36:12;12.32;81.02
71304;DHT22;59091;47.446;19.148;2024-02-26T07:38:38;12.27;81.27
71304;DHT22;59091;47.446;19.148;2024-02-26T07:41:03;12.35;81.09
71304;DHT22;59091;47.446;19.148;2024-02-26T07:43:29;12.46;81.48
71304;DHT22;59091;47.446;19.148;2024-02-26T07:45:54;12.63;80.62
71304;DHT22;59091;47.446;19.148;2024-02-26T07:48:20;12.80;80.13
71304;DHT22;59091;47.446;19.148;2024-02-26T07:50:45;12.96;79.76
71304;DHT22;59091;47.446;19.148;2024-02-26T07:53:11;13.13;79.21
71304;DHT22;59091;47.446;19.148;2024-02-26T07:55:36;13.20;78.90
71304;DHT22;59091;47.446;19.148;2024-02-26T07:58:01;13.17;78.87
71304;DHT22;59091;47.446;19.148;2024-02-26T08:00:28;13.33;78.62
71304;DHT22;59091;47.446;19.148;2024-02-26T08:02:53;13.47;78.55
71304;DHT22;59091;47.446;19.148;2024-02-26T08:05:19;13.65;77.78
71304;DHT22;59091;47.446;19.148;2024-02-26T08:07:44;13.70;77.19
71304;DHT22;59091;47.446;19.148;2024-02-26T08:10:10;13.85;78.47
71304;DHT22;59091;47.446;19.148;2024-02-26T08:12:36;14.05;77.04
71304;DHT22;59091;47.446;19.148;2024-02-26T08:15:02;14.06;77.00
71304;DHT22;59091;47.446;19.148;2024-02-26T08:17:27;13.88;76.65
71304;DHT22;59091;47.446;19.148;2024-02-26T08:19:53;14.01;76.47
71304;DHT22;59091;47.446;19.148;2024-02-26T08:22:18;14.04;76.82
71304;DHT22;59091;47.446;19.148;2024-02-26T08:24:44;14.13;76.97
71304;DHT22;59091;47.446;19.148;2024-02-26T08:27:09;14.21;75.79
71304;DHT22;59091;47.446;19.148;2024-02-26T08:29:35;14.39;75.26
71304;DHT22;59091;47.446;19.148;2024-02-26T08:32:00;14.93;80.00
71304;DHT22;59091;47.446;19.148;2024-02-26T08:34:26;15.07;75.07
71304;DHT22;59091;47.446;19.148;2024-02-26T08:36:51;15.22;74.53
71304;DHT22;59091;47.446;19.148;2024-02-26T08:39:17;15.24;72.54
71304;DHT22;59091;47.446;19.148;2024-02-26T08:41:43;14.88;72.09
71304;DHT22;59091;47.446;19.148;2024-02-26T08:44:09;14.83;73.63
71304;DHT22;59091;47.446;19.148;2024-02-26T08:46:34;14.94;73.48
71304;DHT22;59091;47.446;19.148;2024-02-26T08:49:00;15.00;73.26
71304;DHT22;59091;47.446;19.148;2024-02-26T08:51:25;15.05;73.43
71304;DHT22;59091;47.446;19.148;2024-02-26T08:53:51;15.02;73.29
71304;DHT22;59091;47.446;19.148;2024-02-26T08:56:16;14.98;73.05
71304;DHT22;59091;47.446;19.148;2024-02-26T08:58:45;14.97;72.90
71304;DHT22;59091;47.446;19.148;2024-02-26T09:01:13;14.90;72.97
71304;DHT22;59091;47.446;19.148;2024-02-26T09:03:39;14.74;73.35
71304;DHT22;59091;47.446;19.148;2024-02-26T09:06:05;14.84;73.26
71304;DHT22;59091;47.446;19.148;2024-02-26T09:08:32;14.40;74.73
71304;DHT22;59091;47.446;19.148;2024-02-26T09:10:57;14.55;74.18
71304;DHT22;59091;47.446;19.148;2024-02-26T09:13:23;14.55;74.38
71304;DHT22;59091;47.446;19.148;2024-02-26T09:15:48;14.49;74.51
71304;DHT22;59091;47.446;19.148;2024-02-26T09:18:14;14.66;74.06
71304;DHT22;59091;47.446;19.148;2024-02-26T09:20:40;14.84;73.40
71304;DHT22;59091;47.446;19.148;2024-02-26T09:23:14;14.93;73.30
71304;DHT22;59091;47.446;19.148;2024-02-26T09:25:40;15.00;73.48
71304;DHT22;59091;47.446;19.148;2024-02-26T09:28:05;15.21;72.57
71304;DHT22;59091;47.446;19.148;2024-02-26T09:30:31;15.32;71.96
71304;DHT22;59091;47.446;19.148;2024-02-26T09:32:56;15.45;71.45
71304;DHT22;59091;47.446;19.148;2024-02-26T09:35:22;15.51;71.42
71304;DHT22;59091;47.446;19.148;2024-02-26T09:37:47;15.48;70.45
71304;DHT22;59091;47.446;19.148;2024-02-26T09:40:14;15.75;70.80
71304;DHT22;59091;47.446;19.148;2024-02-26T09:42:51;15.75;69.68
71304;DHT22;59091;47.446;19.148;2024-02-26T09:45:21;15.83;70.43
71304;DHT22;59091;47.446;19.148;2024-02-26T09:47:48;15.72;70.60
71304;DHT22;59091;47.446;19.148;2024-02-26T09:50:14;15.62;71.23
71304;DHT22;59091;47.446;19.148;2024-02-26T09:52:43;15.81;70.63
71304;DHT22;59091;47.446;19.148;2024-02-26T09:55:09;15.81;70.39
71304;DHT22;59091;47.446;19.148;2024-02-26T09:57:37;15.94;70.03
71304;DHT22;59091;47.446;19.148;2024-02-26T10:00:04;15.96;69.78
71304;DHT22;59091;47.446;19.148;2024-02-26T10:02:35;15.89;70.27
71304;DHT22;59091;47.446;19.148;2024-02-26T10:05:03;15.97;70.15
71304;DHT22;59091;47.446;19.148;2024-02-26T10:07:32;16.12;69.82
71304;DHT22;59091;47.446;19.148;2024-02-26T10:09:58;16.18;69.62
71304;DHT22;59091;47.446;19.148;2024-02-26T10:12:23;16.18;69.42
71304;DHT22;59091;47.446;19.148;2024-02-26T10:14:51;16.00;69.68
71304;DHT22;59091;47.446;19.148;2024-02-26T10:17:17;15.92;69.75
71304;DHT22;59091;47.446;19.148;2024-02-26T10:19:44;15.86;70.44
71304;DHT22;59091;47.446;19.148;2024-02-26T10:22:09;16.02;69.16
71304;DHT22;59091;47.446;19.148;2024-02-26T10:24:34;16.12;69.17
71304;DHT22;59091;47.446;19.148;2024-02-26T10:27:01;16.23;69.08
71304;DHT22;59091;47.446;19.148;2024-02-26T10:29:27;16.17;68.24
71304;DHT22;59091;47.446;19.148;2024-02-26T10:31:53;16.37;68.32
71304;DHT22;59091;47.446;19.148;2024-02-26T10:34:19;16.48;68.05
71304;DHT22;59091;47.446;19.148;2024-02-26T10:36:44;16.69;67.84
71304;DHT22;59091;47.446;19.148;2024-02-26T10:39:13;16.78;68.10
71304;DHT22;59091;47.446;19.148;2024-02-26T10:41:40;16.57;68.14
71304;DHT22;59091;47.446;19.148;2024-02-26T10:44:11;16.60;68.12
71304;DHT22;59091;47.446;19.148;2024-02-26T10:46:38;16.60;67.75
71304;DHT22;59091;47.446;19.148;2024-02-26T10:49:05;16.57;67.00
71304;DHT22;59091;47.446;19.148;2024-02-26T10:51:35;16.63;65.85
71304;DHT22;59091;47.446;19.148;2024-02-26T10:54:04;16.64;66.01
71304;DHT22;59091;47.446;19.148;2024-02-26T10:56:34;16.48;67.57
71304;DHT22;59091;47.446;19.148;2024-02-26T10:59:00;16.51;67.14
71304;DHT22;59091;47.446;19.148;2024-02-26T11:01:27;16.53;65.99
71304;DHT22;59091;47.446;19.148;2024-02-26T11:03:55;16.58;65.25
71304;DHT22;59091;47.446;19.148;2024-02-26T11:06:22;16.65;65.68
71304;DHT22;59091;47.446;19.148;2024-02-26T11:08:50;16.63;66.87
71304;DHT22;59091;47.446;19.148;2024-02-26T11:11:17;16.72;66.51
71304;DHT22;59091;47.446;19.148;2024-02-26T11:13:44;16.82;66.06
71304;DHT22;59091;47.446;19.148;2024-02-26T11:16:13;16.78;65.65
71304;DHT22;59091;47.446;19.148;2024-02-26T11:18:39;16.60;65.68
71304;DHT22;59091;47.446;19.148;2024-02-26T11:21:07;16.48;66.18
71304;DHT22;59091;47.446;19.148;2024-02-26T11:23:34;16.67;66.32
71304;DHT22;59091;47.446;19.148;2024-02-26T11:26:04;16.81;66.38
71304;DHT22;59091;47.446;19.148;2024-02-26T11:28:32;16.55;66.93
71304;DHT22;59091;47.446;19.148;2024-02-26T11:31:00;16.79;66.23
71304;DHT22;59091;47.446;19.148;2024-02-26T11:33:26;17.04;65.72
71304;DHT22;59091;47.446;19.148;2024-02-26T11:35:53;17.20;64.25
71304;DHT22;59091;47.446;19.148;2024-02-26T11:38:21;16.95;64.60
71304;DHT22;59091;47.446;19.148;2024-02-26T11:40:50;16.91;64.62
71304;DHT22;59091;47.446;19.148;2024-02-26T11:43:16;16.79;65.29
71304;DHT22;59091;47.446;19.148;2024-02-26T11:48:13;17.43;66.13
71304;DHT22;59091;47.446;19.148;2024-02-26T11:50:39;17.32;63.74
71304;DHT22;59091;47.446;19.148;2024-02-26T11:53:24;17.30;63.60
71304;DHT22;59091;47.446;19.148;2024-02-26T11:58:41;18.00;64.95
71304;DHT22;59091;47.446;19.148;2024-02-26T12:01:36;17.77;61.73
71304;DHT22;59091;47.446;19.148;2024-02-26T12:04:02;17.88;60.92
71304;DHT22;59091;47.446;19.148;2024-02-26T12:06:29;17.88;61.37
71304;DHT22;59091;47.446;19.148;2024-02-26T12:08:56;17.84;60.91
71304;DHT22;59091;47.446;19.148;2024-02-26T12:11:21;17.60;60.39
71304;DHT22;59091;47.446;19.148;2024-02-26T12:13:47;17.93;61.08
71304;DHT22;59091;47.446;19.148;2024-02-26T12:16:40;17.87;61.11
71304;DHT22;59091;47.446;19.148;2024-02-26T12:19:10;17.67;61.85
71304;DHT22;59091;47.446;19.148;2024-02-26T12:21:37;17.86;60.80
71304;DHT22;59091;47.446;19.148;2024-02-26T12:24:13;18.02;61.64
71304;DHT22;59091;47.446;19.148;2024-02-26T12:26:39;17.94;59.58
71304;DHT22;59091;47.446;19.148;2024-02-26T12:29:05;18.01;59.96
71304;DHT22;59091;47.446;19.148;2024-02-26T12:31:32;18.00;59.93
71304;DHT22;59091;47.446;19.148;2024-02-26T12:33:59;18.14;59.57
71304;DHT22;59091;47.446;19.148;2024-02-26T12:36:24;18.08;60.05
71304;DHT22;59091;47.446;19.148;2024-02-26T12:38:51;17.98;60.06
71304;DHT22;59091;47.446;19.148;2024-02-26T12:41:16;17.76;61.19
71304;DHT22;59091;47.446;19.148;2024-02-26T12:43:42;17.81;60.74
71304;DHT22;59091;47.446;19.148;2024-02-26T12:46:08;18.00;60.16
71304;DHT22;59091;47.446;19.148;2024-02-26T12:48:33;18.19;59.47
71304;DHT22;59091;47.446;19.148;2024-02-26T12:50:59;18.19;58.81
71304;DHT22;59091;47.446;19.148;2024-02-26T12:53:26;18.05;59.35
71304;DHT22;59091;47.446;19.148;2024-02-26T12:55:55;18.01;60.22
71304;DHT22;59091;47.446;19.148;2024-02-26T12:58:21;17.94;60.27
71304;DHT22;59091;47.446;19.148;2024-02-26T13:00:51;18.12;59.84
71304;DHT22;59091;47.446;19.148;2024-02-26T13:03:17;18.24;59.96
71304;DHT22;59091;47.446;19.148;2024-02-26T13:05:42;18.21;60.11
71304;DHT22;59091;47.446;19.148;2024-02-26T13:08:08;18.39;60.01
71304;DHT22;59091;47.446;19.148;2024-02-26T13:10:33;18.42;59.56
71304;DHT22;59091;47.446;19.148;2024-02-26T13:13:01;18.29;58.43
71304;DHT22;59091;47.446;19.148;2024-02-26T13:15:27;18.35;58.62
71304;DHT22;59091;47.446;19.148;2024-02-26T13:17:53;18.29;59.15
71304;DHT22;59091;47.446;19.148;2024-02-26T13:20:39;18.05;57.47
71304;DHT22;59091;47.446;19.148;2024-02-26T13:23:12;17.77;57.47
71304;DHT22;59091;47.446;19.148;2024-02-26T13:25:38;17.74;58.41
71304;DHT22;59091;47.446;19.148;2024-02-26T13:28:24;17.70;58.54
71304;DHT22;59091;47.446;19.148;2024-02-26T13:30:53;17.81;58.89
71304;DHT22;59091;47.446;19.148;2024-02-26T13:33:22;17.71;60.60
71304;DHT22;59091;47.446;19.148;2024-02-26T13:35:47;17.88;61.51
71304;DHT22;59091;47.446;19.148;2024-02-26T13:38:13;17.60;60.46
71304;DHT22;59091;47.446;19.148;2024-02-26T13:40:38;17.57;61.09
71304;DHT22;59091;47.446;19.148;2024-02-26T13:43:04;17.70;60.37
71304;DHT22;59091;47.446;19.148;2024-02-26T13:45:30;17.80;60.27
71304;DHT22;59091;47.446;19.148;2024-02-26T13:48:01;17.86;60.22
71304;DHT22;59091;47.446;19.148;2024-02-26T13:50:27;17.93;61.48
71304;DHT22;59091;47.446;19.148;2024-02-26T13:52:53;17.78;59.95
71304;DHT22;59091;47.446;19.148;2024-02-26T13:55:20;17.62;60.18
71304;DHT22;59091;47.446;19.148;2024-02-26T13:57:47;17.66;60.53
71304;DHT22;59091;47.446;19.148;2024-02-26T14:00:13;17.60;60.70
71304;DHT22;59091;47.446;19.148;2024-02-26T14:02:39;17.20;62.20
71304;DHT22;59091;47.446;19.148;2024-02-26T14:05:05;17.16;62.17
71304;DHT22;59091;47.446;19.148;2024-02-26T14:07:30;17.20;62.41
71304;DHT22;59091;47.446;19.148;2024-02-26T14:09:58;17.36;63.58
71304;DHT22;59091;47.446;19.148;2024-02-26T14:12:24;17.46;62.51
71304;DHT22;59091;47.446;19.148;2024-02-26T14:14:49;17.54;62.26
71304;DHT22;59091;47.446;19.148;2024-02-26T14:17:15;17.50;62.05
71304;DHT22;59091;47.446;19.148;2024-02-26T14:19:41;17.53;61.24
71304;DHT22;59091;47.446;19.148;2024-02-26T14:22:11;17.54;60.94
71304;DHT22;59091;47.446;19.148;2024-02-26T14:24:36;17.45;61.27
71304;DHT22;59091;47.446;19.148;2024-02-26T14:27:02;17.42;61.22
71304;DHT22;59091;47.446;19.148;2024-02-26T14:29:28;17.42;61.01
71304;DHT22;59091;47.446;19.148;2024-02-26T14:31:53;17.39;60.86
71304;DHT22;59091;47.446;19.148;2024-02-26T14:34:19;17.26;60.89
71304;DHT22;59091;47.446;19.148;2024-02-26T14:36:44;17.29;61.07
71304;DHT22;59091;47.446;19.148;2024-02-26T14:39:10;17.26;61.21
71304;DHT22;59091;47.446;19.148;2024-02-26T14:41:39;17.12;61.86
71304;DHT22;59091;47.446;19.148;2024-02-26T14:44:04;17.09;62.47
71304;DHT22;59091;47.446;19.148;2024-02-26T14:46:30;17.23;64.82
71304;DHT22;59091;47.446;19.148;2024-02-26T14:48:55;17.22;62.79
71304;DHT22;59091;47.446;19.148;2024-02-26T14:51:22;17.18;61.62
71304;DHT22;59091;47.446;19.148;2024-02-26T14:53:47;17.14;61.46
71304;DHT22;59091;47.446;19.148;2024-02-26T14:56:13;17.16;61.63
71304;DHT22;59091;47.446;19.148;2024-02-26T14:58:38;17.09;61.58
71304;DHT22;59091;47.446;19.148;2024-02-26T15:01:04;16.99;61.58
71304;DHT22;59091;47.446;19.148;2024-02-26T15:03:29;16.99;61.79
71304;DHT22;59091;47.446;19.148;2024-02-26T15:05:55;16.94;61.89
71304;DHT22;59091;47.446;19.148;2024-02-26T15:08:20;16.89;62.35
71304;DHT22;59091;47.446;19.148;2024-02-26T15:10:45;16.88;62.26
71304;DHT22;59091;47.446;19.148;2024-02-26T15:13:14;16.86;62.16
71304;DHT22;59091;47.446;19.148;2024-02-26T15:15:43;16.82;62.40